sensor_id;sensor_type;location;lat;lon;timestamp;P1;durP1;ratioP1;P2;durP2;ratioP2
41327;SDS011;27075;47.636;-2.058;2022-12-10T00:01:41;16.52;;;12.65;;
41327;SDS011;27075;47.636;-2.058;2022-12-10T00:04:07;15.35;;;13.80;;
41327;SDS011;27075;47.636;-2.058;2022-12-10T00:06:34;24.70;;;20.70;;
41327;SDS011;27075;47.636;-2.058;2022-12-10T00:09:01;25.45;;;20.13;;
41327;SDS011;27075;47.636;-2.058;2022-12-10T00:11:28;25.38;;;19.60;;
41327;SDS011;27075;47.636;-2.058;2022-12-10T00:13:54;32.00;;;24.33;;
41327;SDS011;27075;47.636;-2.058;2022-12-10T00:18:46;31.45;;;25.98;;
41327;SDS011;27075;47.636;-2.058;2022-12-10T00:21:14;35.22;;;22.25;;
41327;SDS011;27075;47.636;-2.058;2022-12-10T00:23:40;31.85;;;21.38;;
41327;SDS011;27075;47.636;-2.058;2022-12-10T00:26:09;33.67;;;21.60;;
41327;SDS011;27075;47.636;-2.058;2022-12-10T00:28:35;28.90;;;21.60;;
41327;SDS011;27075;47.636;-2.058;2022-12-10T00:31:05;22.40;;;18.17;;
41327;SDS011;27075;47.636;-2.058;2022-12-10T00:33:31;20.40;;;15.63;;
41327;SDS011;27075;47.636;-2.058;2022-12-10T00:36:05;16.15;;;14.65;;
41327;SDS011;27075;47.636;-2.058;2022-12-10T00:38:31;14.45;;;12.88;;
41327;SDS011;27075;47.636;-2.058;2022-12-10T00:40:57;18.52;;;16.65;;
41327;SDS011;27075;47.636;-2.058;2022-12-10T00:43:23;16.65;;;14.98;;
41327;SDS011;27075;47.636;-2.058;2022-12-10T00:45:49;16.25;;;14.50;;
41327;SDS011;27075;47.636;-2.058;2022-12-10T00:48:15;16.58;;;14.77;;
41327;SDS011;27075;47.636;-2.058;2022-12-10T00:50:41;15.85;;;14.35;;
41327;SDS011;27075;47.636;-2.058;2022-12-10T00:53:07;16.73;;;15.07;;
41327;SDS011;27075;47.636;-2.058;2022-12-10T00:55:33;17.23;;;15.38;;
41327;SDS011;27075;47.636;-2.058;2022-12-10T00:57:59;17.65;;;15.32;;
41327;SDS011;27075;47.636;-2.058;2022-12-10T01:00:25;17.25;;;14.63;;
41327;SDS011;27075;47.636;-2.058;2022-12-10T01:02:51;15.48;;;13.82;;
41327;SDS011;27075;47.636;-2.058;2022-12-10T01:05:18;24.17;;;18.27;;
41327;SDS011;27075;47.636;-2.058;2022-12-10T01:07:44;20.45;;;15.38;;
41327;SDS011;27075;47.636;-2.058;2022-12-10T01:10:10;17.83;;;15.73;;
41327;SDS011;27075;47.636;-2.058;2022-12-10T01:12:36;19.23;;;15.73;;
41327;SDS011;27075;47.636;-2.058;2022-12-10T01:15:02;18.40;;;16.50;;
41327;SDS011;27075;47.636;-2.058;2022-12-10T01:17:28;18.80;;;14.73;;
41327;SDS011;27075;47.636;-2.058;2022-12-10T01:19:54;18.48;;;16.60;;
41327;SDS011;27075;47.636;-2.058;2022-12-10T01:22:20;19.13;;;16.05;;
41327;SDS011;27075;47.636;-2.058;2022-12-10T01:24:47;18.15;;;16.25;;
41327;SDS011;27075;47.636;-2.058;2022-12-10T01:27:13;25.02;;;18.75;;
41327;SDS011;27075;47.636;-2.058;2022-12-10T01:29:39;30.38;;;23.00;;
41327;SDS011;27075;47.636;-2.058;2022-12-10T01:32:05;29.52;;;21.13;;
41327;SDS011;27075;47.636;-2.058;2022-12-10T01:34:31;43.92;;;29.08;;
41327;SDS011;27075;47.636;-2.058;2022-12-10T01:36:57;35.05;;;24.88;;
41327;SDS011;27075;47.636;-2.058;2022-12-10T01:39:23;19.60;;;17.33;;
41327;SDS011;27075;47.636;-2.058;2022-12-10T01:41:53;20.60;;;17.48;;
41327;SDS011;27075;47.636;-2.058;2022-12-10T01:46:47;25.45;;;22.75;;
41327;SDS011;27075;47.636;-2.058;2022-12-10T01:49:15;24.42;;;20.08;;
41327;SDS011;27075;47.636;-2.058;2022-12-10T01:51:42;20.10;;;15.75;;
41327;SDS011;27075;47.636;-2.058;2022-12-10T01:54:10;22.33;;;16.55;;
41327;SDS011;27075;47.636;-2.058;2022-12-10T01:56:36;19.38;;;15.82;;
41327;SDS011;27075;47.636;-2.058;2022-12-10T01:59:03;19.05;;;15.93;;
41327;SDS011;27075;47.636;-2.058;2022-12-10T02:14:32;21.42;;;17.95;;
41327;SDS011;27075;47.636;-2.058;2022-12-10T02:17:03;19.40;;;16.65;;
41327;SDS011;27075;47.636;-2.058;2022-12-10T02:21:56;16.05;;;14.60;;
41327;SDS011;27075;47.636;-2.058;2022-12-10T02:24:24;15.73;;;14.13;;
41327;SDS011;27075;47.636;-2.058;2022-12-10T02:29:26;16.45;;;14.77;;
41327;SDS011;27075;47.636;-2.058;2022-12-10T02:31:55;18.40;;;16.55;;
41327;SDS011;27075;47.636;-2.058;2022-12-10T02:34:22;19.48;;;17.63;;
41327;SDS011;27075;47.636;-2.058;2022-12-10T02:36:49;15.80;;;14.13;;
41327;SDS011;27075;47.636;-2.058;2022-12-10T02:39:18;26.08;;;17.38;;
41327;SDS011;27075;47.636;-2.058;2022-12-10T02:41:53;18.98;;;16.13;;
41327;SDS011;27075;47.636;-2.058;2022-12-10T02:44:19;17.98;;;14.88;;
41327;SDS011;27075;47.636;-2.058;2022-12-10T02:46:46;16.15;;;13.85;;
41327;SDS011;27075;47.636;-2.058;2022-12-10T02:49:13;16.45;;;14.75;;
41327;SDS011;27075;47.636;-2.058;2022-12-10T02:51:40;22.70;;;13.48;;
41327;SDS011;27075;47.636;-2.058;2022-12-10T02:54:30;16.92;;;15.00;;
41327;SDS011;27075;47.636;-2.058;2022-12-10T02:56:54;16.23;;;14.63;;
41327;SDS011;27075;47.636;-2.058;2022-12-10T03:02:06;20.10;;;15.55;;
41327;SDS011;27075;47.636;-2.058;2022-12-10T03:04:39;14.88;;;13.25;;
41327;SDS011;27075;47.636;-2.058;2022-12-10T03:07:10;20.25;;;13.18;;
41327;SDS011;27075;47.636;-2.058;2022-12-10T03:09:39;13.70;;;12.38;;
41327;SDS011;27075;47.636;-2.058;2022-12-10T03:12:48;14.73;;;13.10;;
41327;SDS011;27075;47.636;-2.058;2022-12-10T03:15:01;20.98;;;12.50;;
41327;SDS011;27075;47.636;-2.058;2022-12-10T03:17:28;17.08;;;13.35;;
41327;SDS011;27075;47.636;-2.058;2022-12-10T03:19:55;18.42;;;13.73;;
41327;SDS011;27075;47.636;-2.058;2022-12-10T03:22:21;13.30;;;12.02;;
41327;SDS011;27075;47.636;-2.058;2022-12-10T03:24:48;14.95;;;12.40;;
41327;SDS011;27075;47.636;-2.058;2022-12-10T03:27:15;13.35;;;12.02;;
41327;SDS011;27075;47.636;-2.058;2022-12-10T03:29:51;14.38;;;12.23;;
41327;SDS011;27075;47.636;-2.058;2022-12-10T03:32:20;12.52;;;11.48;;
41327;SDS011;27075;47.636;-2.058;2022-12-10T03:34:46;14.10;;;12.70;;
41327;SDS011;27075;47.636;-2.058;2022-12-10T03:37:13;13.05;;;11.57;;
41327;SDS011;27075;47.636;-2.058;2022-12-10T03:39:40;13.88;;;12.82;;
41327;SDS011;27075;47.636;-2.058;2022-12-10T03:42:06;14.40;;;12.77;;
41327;SDS011;27075;47.636;-2.058;2022-12-10T03:44:33;13.13;;;11.88;;
41327;SDS011;27075;47.636;-2.058;2022-12-10T03:47:00;12.95;;;11.82;;
41327;SDS011;27075;47.636;-2.058;2022-12-10T03:49:26;13.30;;;11.98;;
41327;SDS011;27075;47.636;-2.058;2022-12-10T03:51:52;13.38;;;12.13;;
41327;SDS011;27075;47.636;-2.058;2022-12-10T03:54:18;11.45;;;10.48;;
41327;SDS011;27075;47.636;-2.058;2022-12-10T03:56:44;14.20;;;12.73;;
41327;SDS011;27075;47.636;-2.058;2022-12-10T03:59:10;13.60;;;12.43;;
41327;SDS011;27075;47.636;-2.058;2022-12-10T04:01:36;15.85;;;14.40;;
41327;SDS011;27075;47.636;-2.058;2022-12-10T04:04:03;14.25;;;12.93;;
41327;SDS011;27075;47.636;-2.058;2022-12-10T04:06:29;12.70;;;11.50;;
41327;SDS011;27075;47.636;-2.058;2022-12-10T04:08:55;12.75;;;11.30;;
41327;SDS011;27075;47.636;-2.058;2022-12-10T04:11:21;11.02;;;10.20;;
41327;SDS011;27075;47.636;-2.058;2022-12-10T04:13:48;11.57;;;10.65;;
41327;SDS011;27075;47.636;-2.058;2022-12-10T04:16:33;11.93;;;10.70;;
41327;SDS011;27075;47.636;-2.058;2022-12-10T04:19:00;15.38;;;12.50;;
41327;SDS011;27075;47.636;-2.058;2022-12-10T04:21:27;13.05;;;11.65;;
41327;SDS011;27075;47.636;-2.058;2022-12-10T04:24:15;11.90;;;10.75;;
41327;SDS011;27075;47.636;-2.058;2022-12-10T04:27:02;11.95;;;10.82;;
41327;SDS011;27075;47.636;-2.058;2022-12-10T04:29:29;11.75;;;10.55;;
41327;SDS011;27075;47.636;-2.058;2022-12-10T04:31:56;17.48;;;12.15;;
41327;SDS011;27075;47.636;-2.058;2022-12-10T04:34:22;11.23;;;10.32;;
41327;SDS011;27075;47.636;-2.058;2022-12-10T04:36:49;11.70;;;10.55;;
41327;SDS011;27075;47.636;-2.058;2022-12-10T04:41:41;12.70;;;11.38;;
41327;SDS011;27075;47.636;-2.058;2022-12-10T04:44:08;12.13;;;11.02;;
41327;SDS011;27075;47.636;-2.058;2022-12-10T04:49:00;11.27;;;10.30;;
41327;SDS011;27075;47.636;-2.058;2022-12-10T04:51:26;12.55;;;11.35;;
41327;SDS011;27075;47.636;-2.058;2022-12-10T04:53:52;18.52;;;12.32;;
41327;SDS011;27075;47.636;-2.058;2022-12-10T04:56:18;15.35;;;10.82;;
41327;SDS011;27075;47.636;-2.058;2022-12-10T04:58:44;12.77;;;11.52;;
41327;SDS011;27075;47.636;-2.058;2022-12-10T05:01:10;11.77;;;10.60;;
41327;SDS011;27075;47.636;-2.058;2022-12-10T05:03:37;15.00;;;13.13;;
41327;SDS011;27075;47.636;-2.058;2022-12-10T05:06:06;12.07;;;11.00;;
41327;SDS011;27075;47.636;-2.058;2022-12-10T05:08:33;12.32;;;11.10;;
41327;SDS011;27075;47.636;-2.058;2022-12-10T05:11:02;11.73;;;10.75;;
41327;SDS011;27075;47.636;-2.058;2022-12-10T05:13:29;11.90;;;10.57;;
41327;SDS011;27075;47.636;-2.058;2022-12-10T05:15:55;12.35;;;11.00;;
41327;SDS011;27075;47.636;-2.058;2022-12-10T05:18:21;12.40;;;11.50;;
41327;SDS011;27075;47.636;-2.058;2022-12-10T05:20:47;12.70;;;11.38;;
41327;SDS011;27075;47.636;-2.058;2022-12-10T05:26:01;11.50;;;10.70;;
41327;SDS011;27075;47.636;-2.058;2022-12-10T05:28:28;12.35;;;10.98;;
41327;SDS011;27075;47.636;-2.058;2022-12-10T05:30:54;10.60;;;9.57;;
41327;SDS011;27075;47.636;-2.058;2022-12-10T05:33:20;12.85;;;11.60;;
41327;SDS011;27075;47.636;-2.058;2022-12-10T05:35:56;16.70;;;12.68;;
41327;SDS011;27075;47.636;-2.058;2022-12-10T05:38:22;13.95;;;12.60;;
41327;SDS011;27075;47.636;-2.058;2022-12-10T05:40:49;13.13;;;11.80;;
41327;SDS011;27075;47.636;-2.058;2022-12-10T05:43:15;11.90;;;10.85;;
41327;SDS011;27075;47.636;-2.058;2022-12-10T05:45:41;12.32;;;11.15;;
41327;SDS011;27075;47.636;-2.058;2022-12-10T05:48:09;12.40;;;11.30;;
41327;SDS011;27075;47.636;-2.058;2022-12-10T05:50:35;10.32;;;9.35;;
41327;SDS011;27075;47.636;-2.058;2022-12-10T05:53:01;16.02;;;13.40;;
41327;SDS011;27075;47.636;-2.058;2022-12-10T05:55:27;16.05;;;14.27;;
41327;SDS011;27075;47.636;-2.058;2022-12-10T05:57:54;12.98;;;10.60;;
41327;SDS011;27075;47.636;-2.058;2022-12-10T06:02:48;11.88;;;10.23;;
41327;SDS011;27075;47.636;-2.058;2022-12-10T06:05:14;13.55;;;12.27;;
41327;SDS011;27075;47.636;-2.058;2022-12-10T06:07:40;13.43;;;12.25;;
41327;SDS011;27075;47.636;-2.058;2022-12-10T06:10:06;10.98;;;10.07;;
41327;SDS011;27075;47.636;-2.058;2022-12-10T06:14:58;12.00;;;10.93;;
41327;SDS011;27075;47.636;-2.058;2022-12-10T06:17:24;14.15;;;12.40;;
41327;SDS011;27075;47.636;-2.058;2022-12-10T06:19:50;15.35;;;12.57;;
41327;SDS011;27075;47.636;-2.058;2022-12-10T06:22:16;13.65;;;12.45;;
41327;SDS011;27075;47.636;-2.058;2022-12-10T06:24:42;14.13;;;12.20;;
41327;SDS011;27075;47.636;-2.058;2022-12-10T06:27:08;11.73;;;10.65;;
41327;SDS011;27075;47.636;-2.058;2022-12-10T06:29:34;12.60;;;11.30;;
41327;SDS011;27075;47.636;-2.058;2022-12-10T06:32:00;12.68;;;11.52;;
41327;SDS011;27075;47.636;-2.058;2022-12-10T06:34:26;11.88;;;10.88;;
41327;SDS011;27075;47.636;-2.058;2022-12-10T06:36:52;11.90;;;10.90;;
41327;SDS011;27075;47.636;-2.058;2022-12-10T06:39:18;13.38;;;12.13;;
41327;SDS011;27075;47.636;-2.058;2022-12-10T06:41:44;11.90;;;10.95;;
41327;SDS011;27075;47.636;-2.058;2022-12-10T06:44:11;11.10;;;10.23;;
41327;SDS011;27075;47.636;-2.058;2022-12-10T06:46:38;14.15;;;11.45;;
41327;SDS011;27075;47.636;-2.058;2022-12-10T06:49:05;12.02;;;11.00;;
41327;SDS011;27075;47.636;-2.058;2022-12-10T06:53:57;13.85;;;12.73;;
41327;SDS011;27075;47.636;-2.058;2022-12-10T06:56:23;11.48;;;10.43;;
41327;SDS011;27075;47.636;-2.058;2022-12-10T06:58:49;14.60;;;13.40;;
41327;SDS011;27075;47.636;-2.058;2022-12-10T07:01:22;13.50;;;11.82;;
41327;SDS011;27075;47.636;-2.058;2022-12-10T07:03:51;13.88;;;12.55;;
41327;SDS011;27075;47.636;-2.058;2022-12-10T07:06:18;13.27;;;12.05;;
41327;SDS011;27075;47.636;-2.058;2022-12-10T07:08:44;18.75;;;12.45;;
41327;SDS011;27075;47.636;-2.058;2022-12-10T07:11:11;13.50;;;12.20;;
41327;SDS011;27075;47.636;-2.058;2022-12-10T07:13:38;15.57;;;13.55;;
41327;SDS011;27075;47.636;-2.058;2022-12-10T07:18:30;18.10;;;13.70;;
41327;SDS011;27075;47.636;-2.058;2022-12-10T07:20:56;13.85;;;12.38;;
41327;SDS011;27075;47.636;-2.058;2022-12-10T07:23:22;16.80;;;15.35;;
41327;SDS011;27075;47.636;-2.058;2022-12-10T07:25:48;16.17;;;14.52;;
41327;SDS011;27075;47.636;-2.058;2022-12-10T07:28:14;16.25;;;14.55;;
41327;SDS011;27075;47.636;-2.058;2022-12-10T07:30:40;18.17;;;12.65;;
41327;SDS011;27075;47.636;-2.058;2022-12-10T07:33:06;14.88;;;13.40;;
41327;SDS011;27075;47.636;-2.058;2022-12-10T07:35:32;17.45;;;15.55;;
41327;SDS011;27075;47.636;-2.058;2022-12-10T07:37:58;17.25;;;15.50;;
41327;SDS011;27075;47.636;-2.058;2022-12-10T07:40:24;18.00;;;13.80;;
41327;SDS011;27075;47.636;-2.058;2022-12-10T07:42:50;20.27;;;16.50;;
41327;SDS011;27075;47.636;-2.058;2022-12-10T07:45:16;17.50;;;15.13;;
41327;SDS011;27075;47.636;-2.058;2022-12-10T07:47:42;15.88;;;14.40;;
41327;SDS011;27075;47.636;-2.058;2022-12-10T07:50:08;16.20;;;13.77;;
41327;SDS011;27075;47.636;-2.058;2022-12-10T07:52:34;19.05;;;14.00;;
41327;SDS011;27075;47.636;-2.058;2022-12-10T07:55:00;13.02;;;11.70;;
41327;SDS011;27075;47.636;-2.058;2022-12-10T07:57:27;14.35;;;13.20;;
41327;SDS011;27075;47.636;-2.058;2022-12-10T07:59:54;14.07;;;11.85;;
41327;SDS011;27075;47.636;-2.058;2022-12-10T08:02:20;15.82;;;14.10;;
41327;SDS011;27075;47.636;-2.058;2022-12-10T08:04:46;13.95;;;12.65;;
41327;SDS011;27075;47.636;-2.058;2022-12-10T08:07:12;15.02;;;13.40;;
41327;SDS011;27075;47.636;-2.058;2022-12-10T08:09:38;16.58;;;14.18;;
41327;SDS011;27075;47.636;-2.058;2022-12-10T08:12:04;12.65;;;11.48;;
41327;SDS011;27075;47.636;-2.058;2022-12-10T08:14:30;14.40;;;13.18;;
41327;SDS011;27075;47.636;-2.058;2022-12-10T08:16:56;15.30;;;13.95;;
41327;SDS011;27075;47.636;-2.058;2022-12-10T08:19:22;14.27;;;13.00;;
41327;SDS011;27075;47.636;-2.058;2022-12-10T08:21:48;14.82;;;12.93;;
41327;SDS011;27075;47.636;-2.058;2022-12-10T08:24:14;13.18;;;11.82;;
41327;SDS011;27075;47.636;-2.058;2022-12-10T08:26:40;12.80;;;11.82;;
41327;SDS011;27075;47.636;-2.058;2022-12-10T08:29:06;15.00;;;11.50;;
41327;SDS011;27075;47.636;-2.058;2022-12-10T08:31:32;12.70;;;11.50;;
41327;SDS011;27075;47.636;-2.058;2022-12-10T08:33:59;14.75;;;13.27;;
41327;SDS011;27075;47.636;-2.058;2022-12-10T08:36:25;12.70;;;11.45;;
41327;SDS011;27075;47.636;-2.058;2022-12-10T08:38:51;11.55;;;10.45;;
41327;SDS011;27075;47.636;-2.058;2022-12-10T08:41:20;15.07;;;13.52;;
41327;SDS011;27075;47.636;-2.058;2022-12-10T08:43:47;12.73;;;11.63;;
41327;SDS011;27075;47.636;-2.058;2022-12-10T08:46:14;14.80;;;10.85;;
41327;SDS011;27075;47.636;-2.058;2022-12-10T08:48:40;12.32;;;11.43;;
41327;SDS011;27075;47.636;-2.058;2022-12-10T08:51:07;14.90;;;13.60;;
41327;SDS011;27075;47.636;-2.058;2022-12-10T08:53:34;12.15;;;11.15;;
41327;SDS011;27075;47.636;-2.058;2022-12-10T08:56:00;48.90;;;31.75;;
41327;SDS011;27075;47.636;-2.058;2022-12-10T08:58:26;17.55;;;15.82;;
41327;SDS011;27075;47.636;-2.058;2022-12-10T09:00:52;17.90;;;15.02;;
41327;SDS011;27075;47.636;-2.058;2022-12-10T09:03:18;18.75;;;14.90;;
41327;SDS011;27075;47.636;-2.058;2022-12-10T09:05:44;32.05;;;23.98;;
41327;SDS011;27075;47.636;-2.058;2022-12-10T09:08:11;30.48;;;20.40;;
41327;SDS011;27075;47.636;-2.058;2022-12-10T09:13:03;24.80;;;15.40;;
41327;SDS011;27075;47.636;-2.058;2022-12-10T09:15:29;15.88;;;14.40;;
41327;SDS011;27075;47.636;-2.058;2022-12-10T09:17:55;13.68;;;11.68;;
41327;SDS011;27075;47.636;-2.058;2022-12-10T09:20:21;12.48;;;11.30;;
41327;SDS011;27075;47.636;-2.058;2022-12-10T09:22:47;13.82;;;12.40;;
41327;SDS011;27075;47.636;-2.058;2022-12-10T09:25:13;17.00;;;14.00;;
41327;SDS011;27075;47.636;-2.058;2022-12-10T09:27:41;12.20;;;11.25;;
41327;SDS011;27075;47.636;-2.058;2022-12-10T09:30:08;11.90;;;10.73;;
41327;SDS011;27075;47.636;-2.058;2022-12-10T09:32:34;14.57;;;13.30;;
41327;SDS011;27075;47.636;-2.058;2022-12-10T09:35:00;13.95;;;12.65;;
41327;SDS011;27075;47.636;-2.058;2022-12-10T09:37:26;14.55;;;12.95;;
41327;SDS011;27075;47.636;-2.058;2022-12-10T09:39:52;13.82;;;12.70;;
41327;SDS011;27075;47.636;-2.058;2022-12-10T09:44:57;15.48;;;13.10;;
41327;SDS011;27075;47.636;-2.058;2022-12-10T09:47:26;12.75;;;11.60;;
41327;SDS011;27075;47.636;-2.058;2022-12-10T09:52:25;14.05;;;12.77;;
41327;SDS011;27075;47.636;-2.058;2022-12-10T09:54:55;14.48;;;12.77;;
41327;SDS011;27075;47.636;-2.058;2022-12-10T09:57:32;16.13;;;14.65;;
41327;SDS011;27075;47.636;-2.058;2022-12-10T10:00:03;12.38;;;11.15;;
41327;SDS011;27075;47.636;-2.058;2022-12-10T10:02:32;14.85;;;13.55;;
41327;SDS011;27075;47.636;-2.058;2022-12-10T10:07:25;12.82;;;11.63;;
41327;SDS011;27075;47.636;-2.058;2022-12-10T10:09:54;13.85;;;12.60;;
41327;SDS011;27075;47.636;-2.058;2022-12-10T10:12:20;16.90;;;14.60;;
41327;SDS011;27075;47.636;-2.058;2022-12-10T10:14:46;15.68;;;13.80;;
41327;SDS011;27075;47.636;-2.058;2022-12-10T10:17:23;15.98;;;14.30;;
41327;SDS011;27075;47.636;-2.058;2022-12-10T10:19:53;14.52;;;13.07;;
41327;SDS011;27075;47.636;-2.058;2022-12-10T10:22:19;17.17;;;15.38;;
41327;SDS011;27075;47.636;-2.058;2022-12-10T10:24:45;15.63;;;14.07;;
41327;SDS011;27075;47.636;-2.058;2022-12-10T10:27:15;14.48;;;11.90;;
41327;SDS011;27075;47.636;-2.058;2022-12-10T10:29:45;18.48;;;13.63;;
41327;SDS011;27075;47.636;-2.058;2022-12-10T10:32:17;13.65;;;12.13;;
41327;SDS011;27075;47.636;-2.058;2022-12-10T10:34:44;14.43;;;12.68;;
41327;SDS011;27075;47.636;-2.058;2022-12-10T10:37:18;12.45;;;11.18;;
41327;SDS011;27075;47.636;-2.058;2022-12-10T10:39:48;12.82;;;11.45;;
41327;SDS011;27075;47.636;-2.058;2022-12-10T10:45:01;12.15;;;10.98;;
41327;SDS011;27075;47.636;-2.058;2022-12-10T10:47:28;13.18;;;11.98;;
41327;SDS011;27075;47.636;-2.058;2022-12-10T10:49:54;14.02;;;12.82;;
41327;SDS011;27075;47.636;-2.058;2022-12-10T10:52:20;14.95;;;13.43;;
41327;SDS011;27075;47.636;-2.058;2022-12-10T10:54:47;15.05;;;13.15;;
41327;SDS011;27075;47.636;-2.058;2022-12-10T10:57:24;26.52;;;19.15;;
41327;SDS011;27075;47.636;-2.058;2022-12-10T10:59:55;17.13;;;14.63;;
41327;SDS011;27075;47.636;-2.058;2022-12-10T11:04:57;14.52;;;11.40;;
41327;SDS011;27075;47.636;-2.058;2022-12-10T11:09:55;13.55;;;12.25;;
41327;SDS011;27075;47.636;-2.058;2022-12-10T11:12:43;15.88;;;12.95;;
41327;SDS011;27075;47.636;-2.058;2022-12-10T11:15:54;13.50;;;11.85;;
41327;SDS011;27075;47.636;-2.058;2022-12-10T11:17:55;16.23;;;14.18;;
41327;SDS011;27075;47.636;-2.058;2022-12-10T11:25:16;16.02;;;14.25;;
41327;SDS011;27075;47.636;-2.058;2022-12-10T11:28:06;17.10;;;15.30;;
41327;SDS011;27075;47.636;-2.058;2022-12-10T11:30:39;14.68;;;13.00;;
41327;SDS011;27075;47.636;-2.058;2022-12-10T11:40:44;14.27;;;12.80;;
41327;SDS011;27075;47.636;-2.058;2022-12-10T11:51:05;13.40;;;12.02;;
41327;SDS011;27075;47.636;-2.058;2022-12-10T11:54:07;13.60;;;11.90;;
41327;SDS011;27075;47.636;-2.058;2022-12-10T11:56:31;12.15;;;11.02;;
41327;SDS011;27075;47.636;-2.058;2022-12-10T11:59:04;15.55;;;12.07;;
41327;SDS011;27075;47.636;-2.058;2022-12-10T12:04:32;25.40;;;19.65;;
41327;SDS011;27075;47.636;-2.058;2022-12-10T12:09:42;14.38;;;11.65;;
41327;SDS011;27075;47.636;-2.058;2022-12-10T12:12:18;12.63;;;10.98;;
41327;SDS011;27075;47.636;-2.058;2022-12-10T12:14:56;12.18;;;10.88;;
41327;SDS011;27075;47.636;-2.058;2022-12-10T12:17:24;11.18;;;10.18;;
41327;SDS011;27075;47.636;-2.058;2022-12-10T12:19:53;10.52;;;8.90;;
41327;SDS011;27075;47.636;-2.058;2022-12-10T12:22:27;9.73;;;8.75;;
41327;SDS011;27075;47.636;-2.058;2022-12-10T12:24:59;9.52;;;8.60;;
41327;SDS011;27075;47.636;-2.058;2022-12-10T12:29:57;11.13;;;9.40;;
41327;SDS011;27075;47.636;-2.058;2022-12-10T12:35:52;7.78;;;7.07;;
41327;SDS011;27075;47.636;-2.058;2022-12-10T12:37:54;10.70;;;9.60;;
41327;SDS011;27075;47.636;-2.058;2022-12-10T12:42:55;10.70;;;9.60;;
41327;SDS011;27075;47.636;-2.058;2022-12-10T12:45:31;11.55;;;10.45;;
41327;SDS011;27075;47.636;-2.058;2022-12-10T12:50:36;9.30;;;8.35;;
41327;SDS011;27075;47.636;-2.058;2022-12-10T12:53:07;9.52;;;7.72;;
41327;SDS011;27075;47.636;-2.058;2022-12-10T12:58:11;11.38;;;7.70;;
41327;SDS011;27075;47.636;-2.058;2022-12-10T13:00:40;6.97;;;6.38;;
41327;SDS011;27075;47.636;-2.058;2022-12-10T13:03:20;6.68;;;6.00;;
41327;SDS011;27075;47.636;-2.058;2022-12-10T13:05:50;7.18;;;6.47;;
41327;SDS011;27075;47.636;-2.058;2022-12-10T13:14:02;6.70;;;6.00;;
41327;SDS011;27075;47.636;-2.058;2022-12-10T13:18:53;6.82;;;6.13;;
41327;SDS011;27075;47.636;-2.058;2022-12-10T13:21:34;6.28;;;5.68;;
41327;SDS011;27075;47.636;-2.058;2022-12-10T13:24:11;8.77;;;6.78;;
41327;SDS011;27075;47.636;-2.058;2022-12-10T13:26:40;6.55;;;5.95;;
41327;SDS011;27075;47.636;-2.058;2022-12-10T13:31:44;8.98;;;6.25;;
41327;SDS011;27075;47.636;-2.058;2022-12-10T13:34:22;6.18;;;5.45;;
41327;SDS011;27075;47.636;-2.058;2022-12-10T13:44:50;9.57;;;7.97;;
41327;SDS011;27075;47.636;-2.058;2022-12-10T13:47:26;8.73;;;6.63;;
41327;SDS011;27075;47.636;-2.058;2022-12-10T13:49:56;9.60;;;7.10;;
41327;SDS011;27075;47.636;-2.058;2022-12-10T13:52:29;9.45;;;6.32;;
41327;SDS011;27075;47.636;-2.058;2022-12-10T13:57:42;9.13;;;8.30;;
41327;SDS011;27075;47.636;-2.058;2022-12-10T14:00:17;7.80;;;7.10;;
41327;SDS011;27075;47.636;-2.058;2022-12-10T14:08:02;5.72;;;5.28;;
41327;SDS011;27075;47.636;-2.058;2022-12-10T14:10:31;7.28;;;6.25;;
41327;SDS011;27075;47.636;-2.058;2022-12-10T14:12:58;7.07;;;6.38;;
41327;SDS011;27075;47.636;-2.058;2022-12-10T14:15:25;6.70;;;5.93;;
41327;SDS011;27075;47.636;-2.058;2022-12-10T14:20:18;6.93;;;6.22;;
41327;SDS011;27075;47.636;-2.058;2022-12-10T14:22:47;5.70;;;5.22;;
41327;SDS011;27075;47.636;-2.058;2022-12-10T14:25:15;8.35;;;6.07;;
41327;SDS011;27075;47.636;-2.058;2022-12-10T14:27:42;5.72;;;4.95;;
41327;SDS011;27075;47.636;-2.058;2022-12-10T14:30:16;5.63;;;4.50;;
41327;SDS011;27075;47.636;-2.058;2022-12-10T14:32:42;4.57;;;4.18;;
41327;SDS011;27075;47.636;-2.058;2022-12-10T14:35:13;5.53;;;5.03;;
41327;SDS011;27075;47.636;-2.058;2022-12-10T14:37:43;4.72;;;4.25;;
41327;SDS011;27075;47.636;-2.058;2022-12-10T14:40:17;6.57;;;4.10;;
41327;SDS011;27075;47.636;-2.058;2022-12-10T14:42:44;4.60;;;3.90;;
41327;SDS011;27075;47.636;-2.058;2022-12-10T14:45:11;5.32;;;4.82;;
41327;SDS011;27075;47.636;-2.058;2022-12-10T14:47:39;4.50;;;4.10;;
41327;SDS011;27075;47.636;-2.058;2022-12-10T14:52:32;5.18;;;4.47;;
41327;SDS011;27075;47.636;-2.058;2022-12-10T14:55:00;4.65;;;4.13;;
41327;SDS011;27075;47.636;-2.058;2022-12-10T15:00:04;3.58;;;3.13;;
41327;SDS011;27075;47.636;-2.058;2022-12-10T15:02:33;4.10;;;3.65;;
41327;SDS011;27075;47.636;-2.058;2022-12-10T15:05:00;7.38;;;4.65;;
41327;SDS011;27075;47.636;-2.058;2022-12-10T15:09:52;7.80;;;7.10;;
41327;SDS011;27075;47.636;-2.058;2022-12-10T15:12:28;6.90;;;6.20;;
41327;SDS011;27075;47.636;-2.058;2022-12-10T15:14:55;5.57;;;4.90;;
41327;SDS011;27075;47.636;-2.058;2022-12-10T15:17:42;4.55;;;4.15;;
41327;SDS011;27075;47.636;-2.058;2022-12-10T15:20:10;5.28;;;4.78;;
41327;SDS011;27075;47.636;-2.058;2022-12-10T15:22:44;15.50;;;11.35;;
41327;SDS011;27075;47.636;-2.058;2022-12-10T15:25:24;33.45;;;16.13;;
41327;SDS011;27075;47.636;-2.058;2022-12-10T15:27:57;49.25;;;21.70;;
41327;SDS011;27075;47.636;-2.058;2022-12-10T15:30:28;63.30;;;28.05;;
41327;SDS011;27075;47.636;-2.058;2022-12-10T15:32:57;81.75;;;38.97;;
41327;SDS011;27075;47.636;-2.058;2022-12-10T15:35:24;39.83;;;21.27;;
41327;SDS011;27075;47.636;-2.058;2022-12-10T15:37:50;34.70;;;18.98;;
41327;SDS011;27075;47.636;-2.058;2022-12-10T15:40:22;38.38;;;20.23;;
41327;SDS011;27075;47.636;-2.058;2022-12-10T15:42:49;31.15;;;19.13;;
41327;SDS011;27075;47.636;-2.058;2022-12-10T15:47:41;19.92;;;11.88;;
41327;SDS011;27075;47.636;-2.058;2022-12-10T15:50:08;23.30;;;11.32;;
41327;SDS011;27075;47.636;-2.058;2022-12-10T15:52:34;11.70;;;10.00;;
41327;SDS011;27075;47.636;-2.058;2022-12-10T15:55:00;11.43;;;9.00;;
41327;SDS011;27075;47.636;-2.058;2022-12-10T16:00:04;7.85;;;6.68;;
41327;SDS011;27075;47.636;-2.058;2022-12-10T16:05:28;10.15;;;7.00;;
41327;SDS011;27075;47.636;-2.058;2022-12-10T16:07:55;10.93;;;4.78;;
41327;SDS011;27075;47.636;-2.058;2022-12-10T16:10:23;4.97;;;4.57;;
41327;SDS011;27075;47.636;-2.058;2022-12-10T16:12:53;5.85;;;4.05;;
41327;SDS011;27075;47.636;-2.058;2022-12-10T16:15:23;4.82;;;4.38;;
41327;SDS011;27075;47.636;-2.058;2022-12-10T16:17:50;3.97;;;3.67;;
41327;SDS011;27075;47.636;-2.058;2022-12-10T16:20:23;5.38;;;4.72;;
41327;SDS011;27075;47.636;-2.058;2022-12-10T16:22:50;6.13;;;4.90;;
41327;SDS011;27075;47.636;-2.058;2022-12-10T16:25:17;5.50;;;4.93;;
41327;SDS011;27075;47.636;-2.058;2022-12-10T16:27:43;5.28;;;4.78;;
41327;SDS011;27075;47.636;-2.058;2022-12-10T16:32:35;5.10;;;4.57;;
41327;SDS011;27075;47.636;-2.058;2022-12-10T16:35:01;6.63;;;5.47;;
41327;SDS011;27075;47.636;-2.058;2022-12-10T16:37:27;6.18;;;5.57;;
41327;SDS011;27075;47.636;-2.058;2022-12-10T16:39:53;12.80;;;7.65;;
41327;SDS011;27075;47.636;-2.058;2022-12-10T16:42:19;6.38;;;5.60;;
41327;SDS011;27075;47.636;-2.058;2022-12-10T16:44:45;8.65;;;5.22;;
41327;SDS011;27075;47.636;-2.058;2022-12-10T16:47:11;6.07;;;5.00;;